createdAt,value
2019-03-12T11:55:20.463Z,46.10
2019-03-12T11:57:47.260Z,33.40
2019-03-12T12:00:28.160Z,34.30
2019-03-12T12:03:00.422Z,37.20
2019-03-12T12:05:23.844Z,38.40
2019-03-12T12:07:50.448Z,40.40
2019-03-12T12:10:17.283Z,40.80
2019-03-12T12:12:44.014Z,42.20
2019-03-12T12:15:11.096Z,40.70
2019-03-12T12:17:37.711Z,39.10
2019-03-12T12:20:04.518Z,37.60
2019-03-12T12:22:31.343Z,35.80
2019-03-12T12:24:58.444Z,33.40
2019-03-12T12:27:25.011Z,33.50
2019-03-12T12:29:51.673Z,34.20
2019-03-12T12:32:18.251Z,34.40
2019-03-12T12:34:44.844Z,34.20
2019-03-12T12:37:13.729Z,35.50
2019-03-12T12:39:40.058Z,36.40
2019-03-12T12:42:06.681Z,37.40
2019-03-12T12:44:33.289Z,37.50
2019-03-12T12:46:59.929Z,36.40
2019-03-12T12:49:26.566Z,35.20
2019-03-12T12:51:53.228Z,35.10
2019-03-12T12:54:20.255Z,33.60
2019-03-12T12:56:46.858Z,34.50
2019-03-12T12:59:13.598Z,35.30
2019-03-12T13:01:40.276Z,36.60
2019-03-12T13:04:06.882Z,37.10
2019-03-12T13:06:33.639Z,37.70
2019-03-12T13:09:00.403Z,37.70
2019-03-12T13:11:27.164Z,37.90
2019-03-12T13:13:54.107Z,37.60
2019-03-12T13:16:25.501Z,37.00
2019-03-12T13:18:49.219Z,37.80
2019-03-12T13:21:15.908Z,36.60
2019-03-12T13:23:42.480Z,36.70
2019-03-12T13:26:09.145Z,37.40
2019-03-12T13:28:35.772Z,38.20
2019-03-12T13:31:02.393Z,37.70
2019-03-12T13:33:29.057Z,38.00
2019-03-12T13:35:55.673Z,38.70
2019-03-12T13:38:22.526Z,39.20
2019-03-12T13:40:49.706Z,39.70
2019-03-12T13:43:16.859Z,40.00
2019-03-12T13:45:43.573Z,39.60
2019-03-12T13:48:10.424Z,38.90
2019-03-12T13:50:37.509Z,39.00
2019-03-12T13:53:04.204Z,38.70
2019-03-12T13:55:30.952Z,38.60
2019-03-12T13:57:57.692Z,37.40
2019-03-12T14:00:24.288Z,37.10
2019-03-12T14:02:51.276Z,37.50
2019-03-12T14:05:18.162Z,38.00
2019-03-12T14:07:45.167Z,37.30
2019-03-12T14:10:14.385Z,37.90
2019-03-12T14:12:41.112Z,39.40
2019-03-12T14:15:09.804Z,40.40
2019-03-12T14:17:36.423Z,41.00
2019-03-12T14:20:39.848Z,41.00
2019-03-12T14:23:06.671Z,40.60
2019-03-12T14:25:33.534Z,40.00
2019-03-12T14:28:00.164Z,40.00
2019-03-12T14:30:26.792Z,39.20
2019-03-12T14:32:53.516Z,39.40
2019-03-12T14:35:20.565Z,39.50
2019-03-12T14:37:47.137Z,40.40
2019-03-12T14:40:13.955Z,41.40
2019-03-12T14:42:40.621Z,41.80
2019-03-12T14:45:10.446Z,41.80
2019-03-12T14:47:37.515Z,42.80
2019-03-12T14:50:06.107Z,42.70
2019-03-12T14:52:36.753Z,43.00
2019-03-12T14:55:04.336Z,43.40
2019-03-12T14:57:30.968Z,43.60
2019-03-12T14:59:57.541Z,44.20
2019-03-12T15:02:24.319Z,44.50
2019-03-12T15:04:50.931Z,45.10
2019-03-12T15:07:17.536Z,45.20
2019-03-12T15:09:44.167Z,45.20
2019-03-12T15:12:12.071Z,45.50
2019-03-12T15:14:38.985Z,45.40
2019-03-12T15:17:05.606Z,45.50
2019-03-12T15:19:32.243Z,45.80
2019-03-12T15:21:58.840Z,45.60
2019-03-12T15:24:25.428Z,46.00
2019-03-12T15:26:52.084Z,47.30
2019-03-12T15:29:18.744Z,46.60
2019-03-12T15:31:45.420Z,46.40
2019-03-12T15:34:12.776Z,46.40
2019-03-12T15:36:39.557Z,46.30
2019-03-12T15:39:07.331Z,46.20
2019-03-12T15:41:33.964Z,46.70
2019-03-12T15:44:01.567Z,47.20
2019-03-12T15:46:28.200Z,47.50
2019-03-12T15:48:54.905Z,47.60
2019-03-12T15:51:21.607Z,48.00
2019-03-12T15:53:48.184Z,48.50
2019-03-12T15:56:15.127Z,49.10
2019-03-12T15:58:41.804Z,49.20
2019-03-12T16:01:08.484Z,49.00
2019-03-12T16:03:35.201Z,50.30
2019-03-12T16:06:01.796Z,50.10
2019-03-12T16:08:28.413Z,50.40
2019-03-12T16:10:58.300Z,50.40
2019-03-12T16:13:23.873Z,50.50
2019-03-12T16:15:50.590Z,50.90
2019-03-12T16:18:17.261Z,51.30
2019-03-12T16:20:43.849Z,51.60
2019-03-12T16:23:10.443Z,51.90
2019-03-12T16:25:37.077Z,51.90
2019-03-12T16:28:03.804Z,52.40
2019-03-12T16:30:30.423Z,53.00
2019-03-12T16:32:57.061Z,52.90
2019-03-12T16:35:23.681Z,52.60
2019-03-12T16:37:50.318Z,52.90
2019-03-12T16:40:16.940Z,53.00
2019-03-12T16:42:43.582Z,52.80
2019-03-12T16:45:10.320Z,53.20
2019-03-12T16:47:37.028Z,53.10
2019-03-12T16:50:04.095Z,53.20
2019-03-12T16:52:30.681Z,52.80
2019-03-12T16:54:57.263Z,53.00
2019-03-12T16:57:23.906Z,53.30
2019-03-12T16:59:50.567Z,53.50
2019-03-12T17:02:17.213Z,53.20
2019-03-12T17:04:43.863Z,53.40
2019-03-12T17:07:10.498Z,52.70
2019-03-12T17:09:38.946Z,52.80
2019-03-12T17:12:05.825Z,53.40
2019-03-12T17:14:38.693Z,53.50
2019-03-12T17:17:01.033Z,53.80
2019-03-12T17:19:27.996Z,54.80
2019-03-12T17:21:54.654Z,55.30
2019-03-12T17:24:21.737Z,55.00
2019-03-12T17:26:48.328Z,55.80
2019-03-12T17:29:16.190Z,56.00
2019-03-12T17:31:43.256Z,56.10
2019-03-12T17:34:10.246Z,55.90
2019-03-12T17:36:37.104Z,55.70
2019-03-12T17:39:05.695Z,55.80
2019-03-12T17:41:32.355Z,56.00
2019-03-12T17:43:58.987Z,55.80
2019-03-12T17:46:25.716Z,55.70
2019-03-12T17:48:52.367Z,56.00
2019-03-12T17:51:19.103Z,55.80
2019-03-12T17:53:45.774Z,55.80
2019-03-12T17:56:12.453Z,56.10
2019-03-12T17:58:58.950Z,55.90
2019-03-12T18:01:29.752Z,56.90
2019-03-12T18:03:54.507Z,56.70
2019-03-12T18:06:21.326Z,56.70
2019-03-12T18:08:48.004Z,56.90
2019-03-12T18:11:14.629Z,56.90
2019-03-12T18:13:41.262Z,57.50
2019-03-12T18:16:07.975Z,57.50
2019-03-12T18:18:35.280Z,57.60
2019-03-12T18:21:01.927Z,58.40
2019-03-12T18:23:28.858Z,58.70
2019-03-12T18:25:55.556Z,59.00
2019-03-12T18:28:22.420Z,59.30
2019-03-12T18:30:51.273Z,59.80
2019-03-12T18:33:18.721Z,60.60
2019-03-12T18:35:45.440Z,60.60
2019-03-12T18:38:12.032Z,60.60
2019-03-12T18:40:38.900Z,61.70
2019-03-12T18:43:05.617Z,61.10
2019-03-12T18:45:32.377Z,60.80
2019-03-12T18:47:59.238Z,60.80
2019-03-12T18:50:26.067Z,60.50
2019-03-12T18:52:52.781Z,60.50
2019-03-12T18:55:39.553Z,60.10
2019-03-12T18:58:06.282Z,59.60
2019-03-12T19:00:33.036Z,59.40
2019-03-12T19:02:59.823Z,59.60
2019-03-12T19:05:28.227Z,59.50
2019-03-12T19:07:55.141Z,59.10
2019-03-12T19:10:22.127Z,58.60
2019-03-12T19:12:49.007Z,58.70
2019-03-12T19:15:16.691Z,58.20
2019-03-12T19:17:43.563Z,57.80
2019-03-12T19:20:10.421Z,57.60
2019-03-12T19:22:37.151Z,57.50
2019-03-12T19:25:04.390Z,57.50
2019-03-12T19:27:31.189Z,57.10
2019-03-12T19:29:57.872Z,57.10
2019-03-12T19:32:30.784Z,57.00
2019-03-12T19:34:57.368Z,56.30
2019-03-12T19:37:24.065Z,56.50
2019-03-12T19:39:50.813Z,56.70
2019-03-12T19:42:17.411Z,56.20
2019-03-12T19:44:44.123Z,56.20
2019-03-12T19:47:11.154Z,57.20
2019-03-12T19:49:37.879Z,55.80
2019-03-12T19:52:06.203Z,55.80
2019-03-12T19:54:33.249Z,55.90
2019-03-12T19:57:00.049Z,56.30
2019-03-12T19:59:26.780Z,56.70
2019-03-12T20:01:58.858Z,57.40
2019-03-12T20:04:25.675Z,57.20
2019-03-12T20:06:52.696Z,57.70
2019-03-12T20:09:44.779Z,59.10
2019-03-12T20:12:42.996Z,58.90
2019-03-12T20:15:43.161Z,59.30
2019-03-12T20:18:55.048Z,60.00
2019-03-12T20:22:18.439Z,59.90
2019-03-12T20:25:22.314Z,59.20
2019-03-12T20:28:36.469Z,58.90
2019-03-12T20:31:54.887Z,58.70
2019-03-12T20:35:05.908Z,58.70
2019-03-12T20:38:23.264Z,58.60
2019-03-12T20:42:05.833Z,58.70
2019-03-12T20:45:12.785Z,59.00
2019-03-12T20:48:20.062Z,58.70
2019-03-12T20:51:43.421Z,58.40
2019-03-12T20:54:55.882Z,58.70
2019-03-12T20:57:57.416Z,58.90
2019-03-12T21:01:13.192Z,58.60
2019-03-12T21:04:22.471Z,59.00
2019-03-12T21:07:27.643Z,58.60
2019-03-12T21:10:31.450Z,58.20
2019-03-12T21:13:48.925Z,58.20
2019-03-12T21:17:00.585Z,58.20
2019-03-12T21:20:04.420Z,58.50
2019-03-12T21:22:56.197Z,57.70
2019-03-12T21:25:52.717Z,57.60
2019-03-12T21:28:54.910Z,57.50
2019-03-12T21:31:21.885Z,57.20
2019-03-12T21:33:48.719Z,57.10
2019-03-12T21:36:15.486Z,56.60
2019-03-12T21:38:42.224Z,56.90
2019-03-12T21:41:09.189Z,56.60
2019-03-12T21:43:35.870Z,55.90
2019-03-12T21:46:02.896Z,56.30
2019-03-12T21:48:29.915Z,55.40
2019-03-12T21:50:56.541Z,55.20
2019-03-12T21:53:23.151Z,54.70
2019-03-12T21:55:49.916Z,54.90
2019-03-12T21:58:16.523Z,54.70
2019-03-12T22:00:43.250Z,54.40
2019-03-12T22:03:10.146Z,54.50
2019-03-12T22:05:36.767Z,54.80
2019-03-12T22:08:04.631Z,54.50
2019-03-12T22:10:31.302Z,54.30
2019-03-12T22:12:58.012Z,54.20
2019-03-12T22:15:24.772Z,54.00
2019-03-12T22:17:51.474Z,53.90
2019-03-12T22:20:18.158Z,53.80
2019-03-12T22:22:49.636Z,53.60
2019-03-12T22:25:16.554Z,53.80
2019-03-12T22:27:43.438Z,54.10
2019-03-12T22:30:13.529Z,52.80
2019-03-12T22:32:43.363Z,53.80
2019-03-12T22:35:13.901Z,53.00
2019-03-12T22:37:44.363Z,53.00
2019-03-12T22:40:14.875Z,53.40
2019-03-12T22:42:41.769Z,52.90
2019-03-12T22:45:09.156Z,53.10
2019-03-12T22:47:37.111Z,52.70
2019-03-12T22:50:04.340Z,52.60
2019-03-12T22:52:31.071Z,52.60
2019-03-12T22:54:57.889Z,52.80
2019-03-12T22:57:24.517Z,52.60
2019-03-12T22:59:51.725Z,52.40
2019-03-12T23:02:18.520Z,52.30
2019-03-12T23:04:45.544Z,52.20
2019-03-12T23:07:12.302Z,51.80
2019-03-12T23:09:39.512Z,52.00
2019-03-12T23:12:06.167Z,51.70
2019-03-12T23:14:33.025Z,51.50
2019-03-12T23:16:59.771Z,51.10
2019-03-12T23:19:26.599Z,50.10
2019-03-12T23:21:53.278Z,50.00
2019-03-12T23:24:20.266Z,50.00
2019-03-12T23:26:46.957Z,48.20
2019-03-12T23:29:13.836Z,48.50
2019-03-12T23:31:40.627Z,48.50
2019-03-12T23:34:07.288Z,47.20
2019-03-12T23:36:34.012Z,46.90
2019-03-12T23:39:00.719Z,46.50
2019-03-12T23:41:27.341Z,46.00
2019-03-12T23:43:54.127Z,45.90
2019-03-12T23:46:20.920Z,45.90
2019-03-12T23:48:47.595Z,45.20
2019-03-12T23:51:14.416Z,45.60
2019-03-12T23:53:41.022Z,45.00
2019-03-12T23:56:07.993Z,45.10
2019-03-12T23:58:35.127Z,45.00
